world map with RJOZ marked

RJOZ - Airport

This information may not be accurate or current and is not valid for navigation or flight planning. No warranty of fitness for any purpose is made or implied.

flag of Yamaguchiflag of Japan

Donate via PayPal

Additional information is available on the NEW Great Circle Mapper

Location
City:  Ozuki, Yamaguchi, Japan
ICAO:RJOZ

Details
Type:Airport (Aerodrome, Airfield)
Use:Military
Latitude:34°02'43"N (34.045322)
Longitude:131°03'08"E (131.052144)
Datum:WGS 1984
Elevation:13 ft (4 m)
Runways:2
Longest:3940 × 200 ft (1201 × 61 m)

Time
Timezone:UTC+9 (DST+11)
Local Time:

Weather
METAR:RJOZ  040125Z 33015G25KT 290V360 9999 FEW030 SCT045 12/01 Q1021 RMK 1CU030 3SC045 A3018

Related Locations
Nearby:
Farthest:SUEO: 12212 mi / 19653 km
Montevideo [Montevideo UIR], UY

Find:

   beyond  
but within

Other Information
Maps:
Sources:

  


 


Great Circle Mapper   Great Circle Mapper
Great Circle Mapper FAQ   Great Circle Mapper FAQ
  Karl's Home Page
KLSē   KLSē Home
   GC on Facebook
Airlines of the World   Airlines of the World
Donate via PayPal


Copyright © 2004-2020, Karl L. Swartz. All rights reserved.
All trademarks mentioned herein belong to their respective owners.

Please see credits for attribution and copyright information.

Karl Swartz <karl@kls2.com>
  Powered by FreeBSD
Valid HTML 4.01!
Labeled with ICRA
hCard Microformat
Geo Microformat